Time;durP1;ratioP1;P1;durP2;ratioP2;P2;SDS_P1;SDS_P2;PMS_P1;PMS_P2;Temp;Humidity;BMP_temperature;BMP_pressure;BME280_temperature;BME280_humidity;BME280_pressure;Samples;Min_cycle;Max_cycle;Signal;HPM_P1;HPM_P2
2022/11/18 00:01:13;;;;;;;116.05;11.02;;;;;;;10.13;71.39;97960.94;5034083;28;20521;-85
2022/11/18 00:03:41;;;;;;;83.55;9.90;;;;;;;10.13;71.19;97962.75;5052332;28;20136;-88
2022/11/18 00:06:14;;;;;;;94.30;11.80;;;;;;;10.09;71.64;97967.41;5051800;28;20053;-87
2022/11/18 00:08:41;;;;;;;;;;;;;;;10.11;71.84;97967.31;5052193;28;20053;-89
2022/11/18 00:16:59;;;;;;;63.03;9.48;;;;;;;10.11;71.54;97957.63;5071380;28;20500;-88
2022/11/18 00:19:32;;;;;;;65.60;10.52;;;;;;;10.14;71.34;97964.41;5072013;28;20114;-85
2022/11/18 00:21:59;;;;;;;84.32;10.80;;;;;;;10.12;71.27;97964.53;5071714;28;20048;-85
2022/11/18 00:24:26;;;;;;;88.30;10.27;;;;;;;10.11;71.27;97960.25;5071595;28;20048;-88
2022/11/18 00:26:53;;;;;;;100.22;10.60;;;;;;;10.10;71.23;97965.63;5071680;28;20154;-84
2022/11/18 00:29:21;;;;;;;138.07;11.60;;;;;;;10.08;71.02;97967.53;5053756;28;20053;-89
2022/11/18 00:31:48;;;;;;;147.73;12.20;;;;;;;10.07;71.38;97972.00;5071603;28;20052;-86
2022/11/18 00:34:16;;;;;;;171.38;11.65;;;;;;;10.04;71.45;97974.88;5071599;28;20135;-88
2022/11/18 00:36:45;;;;;;;192.32;11.90;;;;;;;10.03;71.50;97981.09;5071253;28;20068;-85
2022/11/18 00:39:13;;;;;;;157.52;11.65;;;;;;;10.01;71.30;97981.22;5053455;28;20055;-88
2022/11/18 00:44:26;;;;;;;123.20;10.02;;;;;;;9.98;71.57;97986.72;5071517;28;20048;-89
2022/11/18 00:46:53;;;;;;;129.55;12.73;;;;;;;9.97;71.18;97992.94;5070955;28;20507;-88
2022/11/18 00:49:19;;;;;;;151.27;11.45;;;;;;;9.95;71.58;97994.03;5071044;28;20052;-88
2022/11/18 00:51:46;;;;;;;140.25;10.35;;;;;;;9.94;71.58;97998.44;5071132;28;20405;-86
2022/11/18 00:54:13;;;;;;;210.43;13.73;;;;;;;9.93;71.70;97991.53;5071203;28;20056;-88
2022/11/18 00:56:39;;;;;;;153.32;10.80;;;;;;;9.94;71.61;97992.38;5071035;28;20052;-88
2022/11/18 00:59:06;;;;;;;120.47;10.32;;;;;;;9.93;71.65;97990.69;5071105;28;20049;-89
2022/11/18 01:01:33;;;;;;;220.38;14.52;;;;;;;9.91;71.60;97991.66;5071169;28;20053;-87
2022/11/18 01:04:00;;;;;;;112.63;9.70;;;;;;;9.91;71.69;97991.66;5070848;28;20100;-87
2022/11/18 01:06:27;;;;;;;175.07;11.02;;;;;;;9.92;71.83;98000.38;5070757;28;20498;-88
2022/11/18 01:08:54;;;;;;;146.48;10.48;;;;;;;9.91;71.74;98004.81;5070512;28;20052;-88
2022/11/18 01:14:06;;;;;;;162.02;12.30;;;;;;;9.91;71.76;98009.25;5070814;28;20143;-89
2022/11/18 01:16:32;;;;;;;207.07;14.23;;;;;;;9.90;71.66;98012.81;5052753;28;20456;-81
2022/11/18 01:18:59;;;;;;;205.23;11.77;;;;;;;9.90;71.43;98024.16;5070547;28;20131;-86
2022/11/18 01:21:27;;;;;;;216.40;13.88;;;;;;;9.89;71.85;98032.16;5070657;28;20561;-87
2022/11/18 01:23:54;;;;;;;99.97;9.88;;;;;;;9.88;71.85;98033.94;5070767;28;20064;-88
2022/11/18 01:26:20;;;;;;;101.30;10.85;;;;;;;9.88;71.90;98028.69;5052869;28;20060;-86
2022/11/18 01:28:47;;;;;;;176.55;14.65;;;;;;;9.89;71.92;98026.91;5070187;28;20052;-90
2022/11/18 01:31:16;;;;;;;130.52;11.65;;;;;;;9.88;71.75;98036.59;5070617;28;20060;-88
2022/11/18 01:33:44;;;;;;;192.45;13.48;;;;;;;9.89;71.79;98038.28;5070422;28;20257;-88
2022/11/18 01:36:14;;;;;;;142.00;10.80;;;;;;;9.87;72.06;98044.63;5070149;28;20048;-86
2022/11/18 01:38:41;;;;;;;110.53;10.32;;;;;;;9.88;71.78;98039.22;5052667;28;20052;-88
2022/11/18 01:41:07;;;;;;;174.88;11.35;;;;;;;9.88;71.86;98043.66;5070517;28;20147;-89
2022/11/18 01:44:00;;;;;;;148.13;11.30;;;;;;;9.83;72.16;98045.81;5070558;28;20052;-88
2022/11/18 01:46:29;;;;;;;192.88;11.93;;;;;;;9.85;71.70;98041.25;5070249;28;20060;-84
2022/11/18 01:49:05;;;;;;;142.57;10.38;;;;;;;9.83;71.88;98041.38;5070345;28;20158;-88
2022/11/18 01:51:36;;;;;;;181.93;13.05;;;;;;;9.83;71.81;98038.75;5070574;28;20052;-88
2022/11/18 01:54:11;;;;;;;176.10;12.82;;;;;;;9.80;71.97;98041.66;5056837;28;20091;-87
2022/11/18 01:56:49;;;;;;;204.95;12.48;;;;;;;9.76;71.95;98048.13;5135328;23;20049;-83
2022/11/18 01:59:25;;;;;;;180.55;13.82;;;;;;;9.74;71.94;98045.63;5073855;28;20052;-83
2022/11/18 02:01:53;;;;;;;180.95;13.18;;;;;;;9.76;71.75;98050.75;5073863;28;20059;-84
2022/11/18 02:04:26;;;;;;;192.27;12.27;;;;;;;9.73;72.21;98051.84;5073703;28;20084;-84
2022/11/18 02:06:54;;;;;;;161.00;10.77;;;;;;;9.71;71.70;98052.88;5073287;28;20539;-83
2022/11/18 02:09:21;;;;;;;146.32;11.18;;;;;;;9.69;71.84;98055.66;5073796;28;20060;-84
2022/11/18 02:11:52;;;;;;;191.50;12.93;;;;;;;9.68;71.70;98059.22;5073328;28;20524;-83
2022/11/18 02:14:26;;;;;;;152.88;12.90;;;;;;;9.65;72.07;98070.00;5073805;28;20092;-83
2022/11/18 02:17:22;;;;;;;112.25;10.02;;;;;;;9.63;72.43;98061.41;5073049;28;20465;-83
2022/11/18 02:20:04;;;;;;;89.25;9.88;;;;;;;9.64;72.44;98065.69;5073389;28;20056;-83
2022/11/18 02:23:01;;;;;;;120.75;10.70;;;;;;;9.63;72.63;98064.88;5055447;28;20064;-84
2022/11/18 02:25:45;;;;;;;89.90;9.80;;;;;;;9.66;72.33;98071.66;5073288;28;20060;-84
2022/11/18 02:28:24;;;;;;;111.47;11.00;;;;;;;9.67;72.18;98065.44;5073151;28;20065;-84
2022/11/18 02:31:21;;;;;;;143.65;14.02;;;;;;;9.63;72.39;98075.38;5073358;28;20048;-84
2022/11/18 02:34:03;;;;;;;117.72;11.43;;;;;;;9.64;72.48;98077.03;5073075;28;20056;-84
2022/11/18 02:36:38;;;;;;;191.18;13.80;;;;;;;9.67;72.46;98077.75;5072823;28;20057;-83
2022/11/18 02:39:12;;;;;;;176.02;13.50;;;;;;;9.68;72.34;98080.25;5073003;28;20056;-83
2022/11/18 02:41:41;;;;;;;104.00;12.00;;;;;;;9.70;72.16;98069.63;5072678;28;20078;-83
2022/11/18 02:44:16;;;;;;;82.40;12.00;;;;;;;9.66;72.35;98076.94;5072841;28;20059;-84
2022/11/18 02:46:48;;;;;;;117.00;12.27;;;;;;;9.68;72.27;98074.19;5072397;28;20060;-83
2022/11/18 02:49:22;;;;;;;154.95;13.07;;;;;;;9.67;72.21;98083.84;5072663;28;20884;-83
2022/11/18 02:51:50;;;;;;;122.00;12.05;;;;;;;9.68;72.20;98080.25;5055136;28;20089;-83
2022/11/18 02:54:19;;;;;;;128.75;14.18;;;;;;;9.68;72.13;98072.38;5072941;28;20064;-83
2022/11/18 02:56:47;;;;;;;101.82;11.52;;;;;;;9.69;72.08;98073.22;5072147;28;20056;-84
2022/11/18 02:59:18;;;;;;;91.30;13.00;;;;;;;9.69;72.33;98079.31;5054909;28;20079;-83
2022/11/18 03:01:45;;;;;;;101.90;11.75;;;;;;;9.71;72.24;98072.13;5072474;28;20059;-83
2022/11/18 03:04:14;;;;;;;90.68;11.15;;;;;;;9.69;72.18;98081.94;5072595;28;20074;-83
2022/11/18 03:06:44;;;;;;;64.57;10.27;;;;;;;9.69;72.19;98083.72;5072235;28;20068;-84
2022/11/18 03:09:37;;;;;;;99.97;12.02;;;;;;;9.64;72.20;98097.22;5072517;28;20133;-83
2022/11/18 03:12:10;;;;;;;;;;;;;;;9.68;72.30;98106.53;5055156;28;20065;-84
2022/11/18 03:14:42;;;;;;;110.35;10.93;;;;;;;9.70;71.69;98103.78;5054380;28;20300;-84
2022/11/18 03:17:18;;;;;;;100.20;11.45;;;;;;;9.64;71.72;98107.72;5072262;28;20143;-84
2022/11/18 03:20:15;;;;;;;88.50;10.85;;;;;;;9.60;72.20;98122.91;5072656;28;20056;-84
2022/11/18 03:22:59;;;;;;;119.32;11.73;;;;;;;9.59;72.14;98117.78;5072157;28;20056;-84
2022/11/18 03:25:43;;;;;;;99.85;11.45;;;;;;;9.62;71.83;98114.91;5054326;28;20218;-84
2022/11/18 03:28:44;;;;;;;127.22;11.85;;;;;;;9.57;72.18;98111.81;5054008;28;20071;-83
2022/11/18 03:31:17;;;;;;;133.57;11.82;;;;;;;9.57;71.96;98111.81;5068944;28;20056;-83
2022/11/18 03:33:46;;;;;;;;;;;;;;;9.57;72.25;98120.50;5072586;28;20513;-83
2022/11/18 03:36:15;;;;;;;64.60;10.15;;;;;;;9.58;71.94;98127.47;5054112;28;19994;-83
2022/11/18 03:38:47;;;;;;;110.95;11.65;;;;;;;9.54;71.88;98127.81;5071754;28;20055;-83
2022/11/18 03:41:16;;;;;;;59.92;11.57;;;;;;;9.54;71.92;98127.81;5071897;28;20052;-83
2022/11/18 03:43:52;;;;;;;80.00;11.98;;;;;;;9.52;72.20;98135.81;5071611;28;20135;-84
2022/11/18 03:46:22;;;;;;;94.97;12.88;;;;;;;9.51;72.28;98132.38;5071764;28;20135;-84
2022/11/18 03:48:53;;;;;;;127.35;13.82;;;;;;;9.52;72.13;98136.66;5071766;28;20060;-84
2022/11/18 03:51:25;;;;;;;96.35;12.00;;;;;;;9.51;72.40;98132.38;5053751;28;20056;-83
2022/11/18 03:54:05;;;;;;;106.03;13.02;;;;;;;9.52;72.34;98134.03;5071850;28;20071;-84
2022/11/18 03:56:37;;;;;;;77.82;12.77;;;;;;;9.53;72.39;98142.72;5053585;28;20060;-84
2022/11/18 03:59:51;;;;;;;67.45;12.48;;;;;;;9.51;72.66;98142.03;5053853;28;20056;-84
2022/11/18 04:02:24;;;;;;;96.97;11.75;;;;;;;9.53;72.54;98140.09;5009028;28;20055;-84
2022/11/18 04:04:53;;;;;;;58.40;11.52;;;;;;;9.55;72.33;98147.88;5009136;28;20054;-84
2022/11/18 04:07:44;;;;;;;84.45;12.40;;;;;;;9.51;72.55;98148.13;5045941;28;20048;-84
2022/11/18 04:10:17;;;;;;;55.30;11.30;;;;;;;9.55;72.66;98155.75;5071279;28;20399;-84
2022/11/18 04:12:47;;;;;;;;;;;;;;;9.56;72.67;98158.25;5071616;28;20055;-83
2022/11/18 04:15:14;;;;;;;70.28;10.85;;;;;;;9.60;71.81;98158.84;5070697;28;20366;-84
2022/11/18 04:17:41;;;;;;;57.08;10.45;;;;;;;9.58;72.14;98158.13;5071016;28;20095;-84
2022/11/18 04:20:23;;;;;;;41.88;10.63;;;;;;;9.57;72.54;98159.91;5053450;28;20064;-84
2022/11/18 04:22:50;;;;;;;42.40;9.95;;;;;;;9.60;72.29;98150.94;5071006;28;20060;-84
2022/11/18 04:25:16;;;;;;;53.63;10.35;;;;;;;9.60;72.21;98154.44;5070919;28;20109;-84
2022/11/18 04:27:43;;;;;;;52.53;10.60;;;;;;;9.61;72.28;98163.16;5071220;28;20061;-84
2022/11/18 04:30:10;;;;;;;84.50;12.13;;;;;;;9.60;72.10;98166.72;5070781;28;20517;-84
2022/11/18 04:32:36;;;;;;;60.42;11.93;;;;;;;9.60;72.19;98169.34;5070966;28;20056;-84
2022/11/18 04:35:03;;;;;;;74.15;11.88;;;;;;;9.60;72.32;98170.19;5052897;28;20056;-83
2022/11/18 04:37:29;;;;;;;73.28;12.95;;;;;;;9.62;72.03;98170.06;5052704;28;20102;-84
2022/11/18 04:39:56;;;;;;;55.38;11.18;;;;;;;9.61;72.17;98161.34;5052830;28;20048;-84
2022/11/18 04:42:24;;;;;;;49.28;10.27;;;;;;;9.60;72.11;98171.97;5071236;28;20052;-84
2022/11/18 04:44:51;;;;;;;41.00;10.75;;;;;;;9.60;72.09;98175.44;5070705;28;20138;-84
2022/11/18 04:47:17;;;;;;;116.13;13.10;;;;;;;9.61;72.05;98181.53;5070383;28;20512;-84
2022/11/18 04:49:44;;;;;;;77.63;10.88;;;;;;;9.58;71.94;98176.53;5070640;28;20182;-84
2022/11/18 04:52:14;;;;;;;98.03;12.13;;;;;;;9.57;72.08;98190.63;5052802;28;20056;-84
2022/11/18 04:54:40;;;;;;;70.65;10.20;;;;;;;9.55;72.02;98193.38;5052668;28;20486;-84
2022/11/18 04:57:07;;;;;;;62.78;10.13;;;;;;;9.55;72.46;98198.63;5070384;28;20064;-84
2022/11/18 04:59:36;;;;;;;69.00;10.70;;;;;;;9.55;72.48;98200.41;5070569;28;20059;-84
2022/11/18 05:02:03;;;;;;;69.57;9.95;;;;;;;9.56;72.24;98199.44;5070482;28;20571;-84
2022/11/18 05:04:32;;;;;;;45.58;9.88;;;;;;;9.56;72.37;98204.69;5070468;28;20478;-84
2022/11/18 05:07:00;;;;;;;101.00;11.00;;;;;;;9.58;72.46;98208.03;5070604;28;20060;-84
2022/11/18 05:09:28;;;;;;;57.22;10.45;;;;;;;9.57;72.22;98209.81;5052627;28;20091;-84
2022/11/18 05:14:43;;;;;;;46.63;10.52;;;;;;;9.59;71.83;98207.09;5070184;28;20086;-84
2022/11/18 05:17:15;;;;;;;50.00;12.20;;;;;;;9.60;72.26;98211.38;5069999;28;20056;-84
2022/11/18 05:19:42;;;;;;;45.78;12.80;;;;;;;9.60;72.39;98214.00;5070438;28;20063;-84
2022/11/18 05:22:08;;;;;;;49.05;12.10;;;;;;;9.58;72.07;98216.78;5070488;28;20148;-84
2022/11/18 05:24:37;;;;;;;33.05;12.95;;;;;;;9.58;72.33;98219.41;5052346;28;20413;-85
2022/11/18 05:27:06;;;;;;;42.65;12.80;;;;;;;9.59;72.38;98217.59;5069024;28;20055;-85
2022/11/18 05:29:32;;;;;;;61.67;12.27;;;;;;;9.59;72.21;98221.06;5070049;28;20067;-84
2022/11/18 05:32:01;;;;;;;79.55;13.25;;;;;;;9.60;72.42;98227.13;5069949;28;20126;-84
2022/11/18 05:34:27;;;;;;;68.90;13.30;;;;;;;9.61;72.25;98226.22;5052132;28;20061;-84
2022/11/18 05:37:08;;;;;;;53.35;13.52;;;;;;;9.60;72.25;98232.41;5069558;28;20513;-84
2022/11/18 05:39:34;;;;;;;65.70;13.00;;;;;;;9.61;72.14;98239.34;5069772;28;20433;-85
2022/11/18 05:44:46;;;;;;;80.85;14.55;;;;;;;9.60;72.13;98238.50;5069692;28;20602;-85
2022/11/18 05:47:20;;;;;;;57.67;13.18;;;;;;;9.61;72.15;98245.41;5069670;28;20056;-84
2022/11/18 05:49:48;;;;;;;59.38;13.75;;;;;;;9.60;72.22;98248.16;5069899;28;20509;-84
2022/11/18 05:52:15;;;;;;;66.63;14.43;;;;;;;9.59;72.23;98246.50;5070053;28;20152;-84
2022/11/18 05:54:46;;;;;;;45.47;13.20;;;;;;;9.58;72.35;98242.19;5068547;28;20056;-85
2022/11/18 05:57:20;;;;;;;63.88;13.43;;;;;;;9.60;72.50;98253.41;5051574;28;20060;-85
2022/11/18 05:59:51;;;;;;;36.13;13.10;;;;;;;9.60;72.37;98258.66;5070066;28;20061;-85
2022/11/18 06:02:29;;;;;;;55.55;14.85;;;;;;;9.59;72.48;98264.88;5069613;28;20075;-85
2022/11/18 06:05:00;;;;;;;47.78;12.82;;;;;;;9.59;72.13;98262.25;5061598;28;20524;-84
2022/11/18 06:07:34;;;;;;;59.60;14.63;;;;;;;9.58;72.38;98263.22;5052078;28;20151;-85
2022/11/18 06:10:02;;;;;;;51.90;13.77;;;;;;;9.59;72.34;98268.34;5069512;28;20504;-85
2022/11/18 06:12:37;;;;;;;79.93;12.40;;;;;;;9.58;72.58;98271.94;5069837;28;20079;-85
2022/11/18 06:15:10;;;;;;;69.07;14.48;;;;;;;9.58;72.51;98274.56;5069379;28;20052;-85
2022/11/18 06:18:01;;;;;;;66.18;13.52;;;;;;;9.57;72.65;98277.31;5051807;28;20053;-85
2022/11/18 06:20:34;;;;;;;64.60;13.50;;;;;;;9.62;72.31;98285.66;5069478;28;20114;-85
2022/11/18 06:23:01;;;;;;;42.67;13.13;;;;;;;9.61;72.23;98284.00;5051725;28;20503;-85
2022/11/18 06:25:28;;;;;;;70.22;13.55;;;;;;;9.63;72.35;98289.97;5066672;28;20045;-84
2022/11/18 06:28:01;;;;;;;52.03;12.50;;;;;;;9.63;72.11;98289.97;5042934;28;20144;-84
2022/11/18 06:30:27;;;;;;;64.30;13.70;;;;;;;9.61;72.21;98289.25;5061552;28;20067;-83
2022/11/18 06:32:54;;;;;;;32.90;12.73;;;;;;;9.61;72.16;98302.41;5060593;28;20056;-82
2022/11/18 06:35:21;;;;;;;45.97;12.70;;;;;;;9.59;72.13;98297.25;5043868;28;20053;-82
2022/11/18 06:37:47;;;;;;;39.72;13.25;;;;;;;9.58;72.01;98300.84;5049560;28;20066;-82
2022/11/18 06:40:14;;;;;;;24.05;11.63;;;;;;;9.57;72.35;98309.66;5054835;28;20061;-82
2022/11/18 06:45:25;;;;;;;29.02;11.27;;;;;;;9.56;72.16;98315.88;5067966;28;20643;-83
2022/11/18 06:47:56;;;;;;;21.98;9.45;;;;;;;9.54;72.47;98317.78;5071925;28;20052;-83
2022/11/18 06:50:23;;;;;;;23.08;10.57;;;;;;;9.56;72.40;98325.53;5069359;28;20087;-83
2022/11/18 06:52:49;;;;;;;25.98;10.05;;;;;;;9.56;72.30;98328.16;5070765;28;20303;-83
2022/11/18 06:55:16;;;;;;;25.42;9.35;;;;;;;9.56;72.22;98333.41;5053526;28;20179;-83
2022/11/18 06:57:42;;;;;;;39.80;10.52;;;;;;;9.56;72.33;98334.25;5061264;28;20057;-83
2022/11/18 07:00:09;;;;;;;33.90;10.35;;;;;;;9.57;72.27;98332.47;5070154;28;20060;-83
2022/11/18 07:02:36;;;;;;;27.75;9.45;;;;;;;9.58;72.30;98344.66;5044665;28;20293;-83
2022/11/18 07:05:04;;;;;;;16.40;9.25;;;;;;;9.57;72.24;98342.97;5051330;28;20114;-83
2022/11/18 07:07:34;;;;;;;15.68;8.85;;;;;;;9.57;72.29;98353.50;5052346;28;20072;-83
2022/11/18 07:10:07;;;;;;;14.50;9.43;;;;;;;9.58;72.19;98355.16;5052099;28;20064;-83
2022/11/18 07:12:34;;;;;;;20.55;9.30;;;;;;;9.58;71.78;98366.50;5034013;28;20183;-83
2022/11/18 07:15:00;;;;;;;21.58;9.23;;;;;;;9.57;72.03;98364.81;5050554;28;20119;-83
2022/11/18 07:17:29;;;;;;;24.67;9.50;;;;;;;9.55;71.93;98365.88;5051879;28;20060;-83
2022/11/18 07:19:55;;;;;;;37.20;10.15;;;;;;;9.55;71.81;98360.63;5052340;28;20061;-82
2022/11/18 07:22:22;;;;;;;48.90;10.93;;;;;;;9.52;71.87;98373.06;5052047;28;20052;-83
2022/11/18 07:24:48;;;;;;;39.58;10.73;;;;;;;9.52;72.05;98373.06;5052283;28;20130;-83
2022/11/18 07:27:15;;;;;;;33.58;10.15;;;;;;;9.51;72.02;98366.13;5051948;28;20056;-83
2022/11/18 07:29:41;;;;;;;31.90;10.77;;;;;;;9.51;71.85;98381.06;5052372;28;20138;-83
2022/11/18 07:32:07;;;;;;;21.80;9.60;;;;;;;9.50;71.89;98380.19;5052086;28;20060;-83
2022/11/18 07:34:34;;;;;;;18.98;10.55;;;;;;;9.48;71.98;98381.28;5052103;28;20064;-83
2022/11/18 07:37:00;;;;;;;14.75;9.13;;;;;;;9.48;71.99;98382.13;5068802;28;20060;-83
2022/11/18 07:39:27;;;;;;;15.95;9.68;;;;;;;9.48;71.89;98392.63;5064049;28;20404;-83
2022/11/18 07:41:53;;;;;;;20.90;9.88;;;;;;;9.47;71.96;98390.97;5051971;28;20057;-83
2022/11/18 07:44:20;;;;;;;41.17;10.00;;;;;;;9.46;71.89;98386.63;5051945;28;20057;-83
2022/11/18 07:46:46;;;;;;;22.15;10.20;;;;;;;9.44;71.71;98385.94;5033759;28;20060;-83
2022/11/18 07:49:13;;;;;;;17.60;9.57;;;;;;;9.44;71.92;98399.06;5067673;28;20391;-82
2022/11/18 07:51:39;;;;;;;18.75;9.70;;;;;;;9.43;71.96;98402.66;5064064;28;20053;-83
2022/11/18 07:54:11;;;;;;;33.25;11.38;;;;;;;9.42;71.99;98405.38;5066620;28;20048;-83
2022/11/18 07:59:12;;;;;;;28.10;11.32;;;;;;;9.43;72.10;98414.94;5261601;22;20052;-86
2022/11/18 08:01:39;;;;;;;27.45;11.40;;;;;;;9.43;71.69;98414.94;5030671;28;20589;-85
2022/11/18 08:04:10;;;;;;;21.65;10.45;;;;;;;9.39;72.00;98420.41;5030771;28;20516;-86
2022/11/18 08:06:38;;;;;;;20.98;9.98;;;;;;;9.40;71.70;98421.25;5030395;28;20084;-86
2022/11/18 08:09:06;;;;;;;19.17;10.32;;;;;;;9.39;71.77;98435.34;5012988;28;20064;-86
2022/11/18 08:11:32;;;;;;;16.17;10.27;;;;;;;9.38;71.74;98426.63;5030514;28;20089;-85
2022/11/18 08:13:59;;;;;;;19.65;9.75;;;;;;;9.37;71.90;98424.94;5031148;28;20505;-85
2022/11/18 08:16:27;;;;;;;45.33;11.13;;;;;;;9.37;71.60;98432.81;5031928;28;20068;-85
2022/11/18 08:18:54;;;;;;;20.35;10.65;;;;;;;9.37;71.87;98442.47;5031740;28;20089;-87
2022/11/18 08:21:21;;;;;;;31.52;10.70;;;;;;;9.36;72.11;98443.44;5032213;28;20061;-86
2022/11/18 08:23:50;;;;;;;16.88;10.77;;;;;;;9.37;72.15;98442.47;5032059;28;20053;-87
2022/11/18 08:26:17;;;;;;;15.73;10.82;;;;;;;9.38;72.05;98449.41;5031690;28;20060;-87
2022/11/18 08:28:44;;;;;;;15.77;9.93;;;;;;;9.39;72.14;98444.03;5031697;28;20056;-86
2022/11/18 08:31:13;;;;;;;20.27;9.60;;;;;;;9.39;72.14;98445.84;5014008;28;20505;-86
2022/11/18 08:33:40;;;;;;;25.17;10.00;;;;;;;9.42;72.15;98450.03;5014374;28;20064;-85
2022/11/18 08:36:16;;;;;;;26.65;9.38;;;;;;;9.40;71.87;98455.41;5014192;28;20057;-83
2022/11/18 08:38:43;;;;;;;24.05;9.95;;;;;;;9.43;71.92;98457.81;5031543;28;20104;-86
2022/11/18 08:41:14;;;;;;;13.25;8.68;;;;;;;9.44;71.56;98456.00;5031360;28;20515;-86
2022/11/18 08:43:41;;;;;;;17.83;8.98;;;;;;;9.46;71.63;98456.72;5013746;28;20053;-87
2022/11/18 08:46:07;;;;;;;12.93;8.27;;;;;;;9.46;71.70;98462.00;5031653;28;20049;-88
2022/11/18 08:48:34;;;;;;;9.38;7.45;;;;;;;9.45;71.79;98458.50;5031340;28;20056;-84
2022/11/18 08:51:00;;;;;;;10.57;7.68;;;;;;;9.47;71.93;98469.75;5031314;28;20428;-86
2022/11/18 08:53:27;;;;;;;9.20;6.72;;;;;;;9.48;71.73;98466.19;5031565;28;20056;-86
2022/11/18 08:55:58;;;;;;;10.23;6.63;;;;;;;9.47;71.60;98464.50;5013666;28;20072;-85
2022/11/18 08:58:25;;;;;;;8.35;6.50;;;;;;;9.48;71.63;98466.19;5030808;28;20140;-85
2022/11/18 09:00:52;;;;;;;10.30;6.90;;;;;;;9.49;71.52;98474.88;5031182;28;20115;-86
2022/11/18 09:03:19;;;;;;;9.55;6.78;;;;;;;9.48;71.48;98476.69;5031087;28;20064;-83
2022/11/18 09:05:45;;;;;;;11.82;7.28;;;;;;;9.47;71.48;98482.03;5031077;28;20063;-86
2022/11/18 09:08:12;;;;;;;10.93;7.47;;;;;;;9.46;71.36;98483.81;5030857;28;20508;-85
2022/11/18 09:10:38;;;;;;;14.20;7.85;;;;;;;9.46;71.50;98489.06;5030929;28;20136;-83
2022/11/18 09:13:05;;;;;;;13.40;7.82;;;;;;;9.45;71.38;98487.41;5030809;28;20067;-85
2022/11/18 09:15:51;;;;;;;9.05;6.75;;;;;;;9.46;71.57;98491.69;5030751;28;20052;-86
2022/11/18 09:18:18;;;;;;;11.73;7.00;;;;;;;9.45;71.59;98490.03;5030780;28;20053;-86
2022/11/18 09:20:53;;;;;;;10.63;7.82;;;;;;;9.41;71.32;98496.47;5030802;28;20541;-86
2022/11/18 09:23:21;;;;;;;14.82;8.27;;;;;;;9.45;71.52;98502.31;5030603;28;20057;-85
2022/11/18 09:25:47;;;;;;;13.32;7.72;;;;;;;9.44;71.43;98491.00;5030524;28;20464;-85
2022/11/18 09:28:14;;;;;;;14.75;8.48;;;;;;;9.44;71.53;98498.88;5030886;28;20061;-86
2022/11/18 09:30:40;;;;;;;12.02;7.78;;;;;;;9.43;71.46;98506.84;5030956;28;20057;-87
2022/11/18 09:33:07;;;;;;;15.50;9.02;;;;;;;9.40;71.49;98505.28;5030739;28;20049;-87
2022/11/18 09:35:33;;;;;;;18.13;9.57;;;;;;;9.39;71.31;98506.25;5030513;28;20060;-88
2022/11/18 09:38:00;;;;;;;17.77;9.02;;;;;;;9.37;71.53;98511.59;5030296;28;20057;-83
2022/11/18 09:40:26;;;;;;;16.65;9.25;;;;;;;9.37;71.48;98516.00;5030593;28;20054;-86
2022/11/18 09:43:24;;;;;;;24.17;8.93;;;;;;;9.32;71.78;98513.72;5012991;28;20049;-86
2022/11/18 09:45:59;;;;;;;17.08;8.05;;;;;;;9.35;71.42;98524.00;5030383;28;20058;-85
2022/11/18 09:49:11;;;;;;;35.35;9.40;;;;;;;9.36;71.25;98520.44;5030316;28;20522;-86
2022/11/18 09:51:13;;;;;;;35.78;9.93;;;;;;;9.36;71.13;98524.84;5030541;28;20097;-86
2022/11/18 09:53:43;;;;;;;41.80;9.98;;;;;;;9.34;70.90;98531.97;5030451;28;20053;-86
2022/11/18 09:56:15;;;;;;;30.33;9.80;;;;;;;9.31;70.93;98532.22;5030161;28;20053;-85
2022/11/18 09:58:43;;;;;;;27.45;9.45;;;;;;;9.30;71.11;98541.06;5030161;28;20555;-85
2022/11/18 10:01:19;;;;;;;20.80;9.25;;;;;;;9.26;70.97;98543.03;5030554;28;20058;-87
2022/11/18 10:03:46;;;;;;;12.52;9.38;;;;;;;9.27;70.90;98549.16;5012803;28;20054;-86
2022/11/18 10:06:25;;;;;;;15.27;9.50;;;;;;;9.21;70.99;98545.16;5030022;28;20512;-87
2022/11/18 10:09:05;;;;;;;13.70;9.00;;;;;;;9.19;71.10;98547.88;5030426;28;20110;-84
2022/11/18 10:11:42;;;;;;;13.25;8.88;;;;;;;9.17;70.96;98541.06;5030221;28;20057;-86
2022/11/18 10:14:18;;;;;;;12.57;8.85;;;;;;;9.18;71.28;98548.84;5033337;28;20111;-85
2022/11/18 10:17:04;;;;;;;12.77;8.38;;;;;;;9.14;71.16;98550.00;5034083;28;20049;-87
2022/11/18 10:19:36;;;;;;;16.13;8.70;;;;;;;9.15;71.38;98556.94;5034029;28;20053;-84
2022/11/18 10:22:17;;;;;;;17.33;9.63;;;;;;;9.12;71.23;98560.63;5034278;28;20053;-87
2022/11/18 10:24:55;;;;;;;11.77;8.43;;;;;;;9.14;70.91;98568.38;5034082;28;20049;-86
2022/11/18 10:27:25;;;;;;;13.77;8.43;;;;;;;9.14;70.94;98573.63;5034160;28;20481;-86
2022/11/18 10:29:56;;;;;;;12.55;8.77;;;;;;;9.13;70.89;98577.22;5034145;28;20058;-86
2022/11/18 10:32:23;;;;;;;12.32;8.68;;;;;;;9.10;70.85;98577.41;5033893;28;20569;-87
2022/11/18 10:34:55;;;;;;;12.73;9.15;;;;;;;9.04;70.69;98572.63;5033812;28;20060;-86
2022/11/18 10:37:29;;;;;;;12.47;9.30;;;;;;;9.02;70.87;98585.00;5033708;28;20490;-85
2022/11/18 10:40:26;;;;;;;15.00;8.50;;;;;;;8.96;70.91;98581.84;5033475;28;20049;-85
2022/11/18 10:42:54;;;;;;;13.70;8.50;;;;;;;8.97;70.91;98582.69;5033830;28;20050;-87
2022/11/18 10:45:20;;;;;;;12.07;8.55;;;;;;;8.95;71.00;98585.44;5033681;28;20140;-87
2022/11/18 10:47:57;;;;;;;11.18;8.18;;;;;;;8.90;71.10;98587.50;5033739;28;20057;-87
2022/11/18 10:50:31;;;;;;;10.32;7.78;;;;;;;8.90;70.65;98573.56;5033573;28;20192;-86
2022/11/18 10:52:58;;;;;;;10.05;7.38;;;;;;;8.90;70.67;98586.69;5015849;28;20089;-83
2022/11/18 10:55:27;;;;;;;9.13;7.43;;;;;;;8.86;70.59;98586.06;5033221;28;20056;-87
2022/11/18 10:58:16;;;;;;;9.50;7.25;;;;;;;8.80;70.51;98587.31;5015787;28;20057;-85
2022/11/18 11:00:48;;;;;;;8.98;6.38;;;;;;;8.79;70.66;98582.19;5033387;28;20054;-85
2022/11/18 11:03:32;;;;;;;9.18;6.45;;;;;;;8.76;70.63;98590.25;5015573;28;20092;-88
2022/11/18 11:06:37;;;;;;;;;;;;;;;8.77;70.95;98584.06;5033838;28;20087;-85
2022/11/18 11:09:22;;;;;;;7.00;5.03;;;;;;;8.72;70.42;98595.69;4952712;29;19928;-85
2022/11/18 11:11:55;;;;;;;7.65;5.63;;;;;;;8.70;70.56;98587.09;4952604;29;20151;-84
2022/11/18 11:14:27;;;;;;;8.20;5.82;;;;;;;8.67;70.63;98591.72;5004895;28;20085;-86
2022/11/18 11:17:14;;;;;;;9.48;6.40;;;;;;;8.63;71.01;98596.31;5031567;28;20556;-84
2022/11/18 11:20:02;;;;;;;9.25;6.35;;;;;;;8.64;70.94;98597.19;5033134;28;20061;-85
2022/11/18 11:22:29;;;;;;;10.73;7.35;;;;;;;8.64;70.67;98597.19;5033049;28;20518;-84
2022/11/18 11:24:56;;;;;;;8.57;6.55;;;;;;;8.63;71.09;98595.50;5031689;28;20053;-84
2022/11/18 11:27:22;;;;;;;10.35;7.38;;;;;;;8.62;71.00;98593.81;5032639;28;20570;-86
2022/11/18 11:30:13;;;;;;;12.95;7.90;;;;;;;8.60;71.09;98607.88;5032753;28;20045;-85
2022/11/18 11:33:01;;;;;;;11.25;8.00;;;;;;;8.57;71.02;98608.06;5032957;28;20157;-85
2022/11/18 11:35:40;;;;;;;12.25;8.05;;;;;;;8.55;71.15;98615.22;5032823;28;20057;-87
2022/11/18 11:38:24;;;;;;;10.43;8.05;;;;;;;8.53;70.82;98614.50;5032673;28;20068;-85
2022/11/18 11:40:58;;;;;;;10.60;7.57;;;;;;;8.54;71.01;98612.69;5032675;28;20061;-85
2022/11/18 11:43:35;;;;;;;12.13;7.88;;;;;;;8.53;70.82;98621.50;5015084;28;20060;-88
2022/11/18 11:46:21;;;;;;;13.90;8.45;;;;;;;8.50;70.77;98616.44;5032458;28;20053;-86
2022/11/18 11:49:00;;;;;;;10.70;7.85;;;;;;;8.50;70.72;98622.53;5032522;28;20518;-87
2022/11/18 11:51:38;;;;;;;14.73;9.32;;;;;;;8.49;70.68;98623.47;5032690;28;20046;-83
2022/11/18 11:54:31;;;;;;;12.77;8.77;;;;;;;8.42;70.91;98627.44;5032726;28;20050;-83
2022/11/18 11:57:01;;;;;;;13.30;9.27;;;;;;;8.43;70.64;98629.97;5032158;28;20057;-85
2022/11/18 11:59:40;;;;;;;13.95;9.38;;;;;;;8.39;70.66;98633.72;5032257;28;20524;-87
2022/11/18 12:02:25;;;;;;;13.95;9.07;;;;;;;8.35;70.67;98630.44;5032416;28;20053;-86
2022/11/18 12:04:56;;;;;;;13.98;9.48;;;;;;;8.38;70.66;98633.81;5032221;28;20057;-81
2022/11/18 12:07:41;;;;;;;15.00;9.52;;;;;;;8.32;70.87;98633.31;5014598;28;20057;-86
2022/11/18 12:10:19;;;;;;;16.85;10.20;;;;;;;8.34;70.88;98643.69;5032273;28;20061;-86
2022/11/18 12:13:01;;;;;;;12.65;9.40;;;;;;;8.31;70.79;98641.25;5032365;28;20057;-84